Time;durP1;ratioP1;P1;durP2;ratioP2;P2;SDS_P1;SDS_P2;PMS_P1;PMS_P2;Temp;Humidity;BMP_temperature;BMP_pressure;BME280_temperature;BME280_humidity;BME280_pressure;Samples;Min_cycle;Max_cycle;Signal;HPM_P1;HPM_P2
2023/05/10 00:02:14;;;;;;;21.60;14.10;;;;;;;-142.57;100.00;115900.28;5019291;28;20538;-91
2023/05/10 00:04:39;;;;;;;22.00;14.38;;;;;;;-142.57;100.00;115900.28;5019005;28;20034;-90
2023/05/10 00:07:05;;;;;;;18.83;12.00;;;;;;;-142.57;100.00;115900.28;5023776;28;20025;-90
2023/05/10 00:09:30;;;;;;;21.42;13.38;;;;;;;-142.57;100.00;115900.28;5021920;28;20034;-85
2023/05/10 00:11:58;;;;;;;19.73;14.02;;;;;;;-142.57;100.00;115900.28;5022503;28;20113;-87
2023/05/10 00:14:23;;;;;;;16.85;12.05;;;;;;;-142.57;100.00;115900.28;5005052;28;20033;-86
2023/05/10 00:16:49;;;;;;;18.17;11.60;;;;;;;-142.57;100.00;115900.28;5006914;28;20502;-87
2023/05/10 00:19:14;;;;;;;14.40;9.88;;;;;;;-142.57;100.00;115900.28;5022635;28;20034;-87
2023/05/10 00:21:40;;;;;;;16.30;10.80;;;;;;;-142.57;100.00;115900.28;5022586;28;20060;-85
2023/05/10 00:24:06;;;;;;;17.98;10.50;;;;;;;-142.57;100.00;115900.28;5022826;28;20049;-88
2023/05/10 00:26:32;;;;;;;22.83;10.73;;;;;;;-142.57;100.00;115900.28;5039936;28;20018;-88
2023/05/10 00:28:58;;;;;;;18.17;10.50;;;;;;;-142.57;100.00;115900.28;5022382;28;20148;-89
2023/05/10 00:31:30;;;;;;;13.13;9.75;;;;;;;-142.57;100.00;115900.28;5055615;23;20033;-87
2023/05/10 00:33:56;;;;;;;16.17;10.20;;;;;;;-142.57;100.00;115900.28;5037472;28;20050;-89
2023/05/10 00:36:22;;;;;;;18.08;10.23;;;;;;;-142.57;100.00;115900.28;5041836;28;20035;-90
2023/05/10 00:38:49;;;;;;;16.88;11.20;;;;;;;-142.57;100.00;115900.28;5059295;28;20033;-91
2023/05/10 00:41:15;;;;;;;19.70;11.43;;;;;;;-142.57;100.00;115900.28;5059252;28;20060;-89
2023/05/10 00:43:41;;;;;;;17.90;12.10;;;;;;;-142.57;100.00;115900.28;5041826;28;20018;-87
2023/05/10 00:46:07;;;;;;;17.85;10.90;;;;;;;-142.57;100.00;115900.28;5058920;28;20022;-87
2023/05/10 00:56:48;;;;;;;19.95;13.18;;;;;;;-142.57;100.00;115900.28;5058535;28;20117;-85
2023/05/10 01:03:27;;;;;;;22.92;13.07;;;;;;;-142.57;100.00;115900.28;5057334;28;20048;-85
2023/05/10 01:05:52;;;;;;;20.50;13.55;;;;;;;-142.57;100.00;115900.28;5056890;28;20040;-85
2023/05/10 01:08:19;;;;;;;23.95;14.93;;;;;;;-142.57;100.00;115900.28;5056224;28;20038;-85
2023/05/10 01:10:45;;;;;;;22.70;15.40;;;;;;;-142.57;100.00;115900.28;5056069;28;20032;-86
2023/05/10 01:13:12;;;;;;;22.20;14.88;;;;;;;-142.57;100.00;115900.28;5022929;28;20093;-84
2023/05/10 01:15:38;;;;;;;26.58;15.00;;;;;;;-142.57;100.00;115900.28;5054621;28;20033;-85
2023/05/10 01:18:04;;;;;;;22.17;14.30;;;;;;;-142.57;100.00;115900.28;5055552;28;20037;-85
2023/05/10 01:20:38;;;;;;;24.55;16.00;;;;;;;-142.57;100.00;115900.28;5037125;28;20045;-85
2023/05/10 01:23:15;;;;;;;24.55;16.13;;;;;;;-142.57;100.00;115900.28;5053740;28;20041;-85
2023/05/10 01:25:47;;;;;;;24.27;15.43;;;;;;;-142.57;100.00;115900.28;5036600;28;20071;-85
2023/05/10 01:28:38;;;;;;;23.67;15.75;;;;;;;-142.57;100.00;115900.28;5055437;28;20109;-88
2023/05/10 01:31:18;;;;;;;28.20;16.50;;;;;;;-142.57;100.00;115900.28;5056286;28;20045;-88
2023/05/10 01:33:54;;;;;;;25.92;16.25;;;;;;;-142.57;100.00;115900.28;5053347;28;20061;-87
2023/05/10 01:37:01;;;;;;;24.65;16.83;;;;;;;-142.57;100.00;115900.28;5029449;28;20018;-82
2023/05/10 01:39:29;;;;;;;31.45;17.45;;;;;;;-142.57;100.00;115900.28;5034139;28;20051;-86
2023/05/10 01:42:03;;;;;;;26.45;18.48;;;;;;;-142.57;100.00;115900.28;5049277;28;20044;-88
2023/05/10 01:44:56;;;;;;;26.92;17.42;;;;;;;-142.57;100.00;115900.28;5031064;28;20037;-87
2023/05/10 01:47:40;;;;;;;27.10;17.98;;;;;;;-142.57;100.00;115900.28;5052499;28;20029;-86
2023/05/10 01:50:14;;;;;;;29.02;18.67;;;;;;;-142.57;100.00;115900.28;5048131;28;20057;-87
2023/05/10 01:52:44;;;;;;;28.08;18.08;;;;;;;-142.57;100.00;115900.28;5023633;28;20041;-87
2023/05/10 01:55:15;;;;;;;26.38;17.80;;;;;;;-142.57;100.00;115900.28;5024187;28;20038;-84
2023/05/10 01:57:44;;;;;;;21.55;13.30;;;;;;;-142.57;100.00;115900.28;5031752;28;20081;-87
2023/05/10 02:00:11;;;;;;;29.42;19.13;;;;;;;-142.57;100.00;115900.28;5050273;28;20059;-84
2023/05/10 02:02:45;;;;;;;29.13;18.90;;;;;;;-142.57;100.00;115900.28;5046992;28;20073;-86
2023/05/10 02:05:14;;;;;;;35.53;20.05;;;;;;;-142.57;100.00;115900.28;5019141;28;20039;-88
2023/05/10 02:07:41;;;;;;;33.45;20.98;;;;;;;-142.57;100.00;115900.28;5016282;28;20046;-85
2023/05/10 02:10:09;;;;;;;29.92;20.38;;;;;;;-142.57;100.00;115900.28;5022569;28;20022;-85
2023/05/10 02:12:42;;;;;;;32.67;20.63;;;;;;;-142.57;100.00;115900.28;5020899;28;20072;-85
2023/05/10 02:15:11;;;;;;;33.13;21.20;;;;;;;-142.57;100.00;115900.28;5035316;28;20049;-85
2023/05/10 02:17:38;;;;;;;32.78;20.75;;;;;;;-142.57;100.00;115900.28;5036733;28;20029;-88
2023/05/10 02:20:07;;;;;;;37.85;21.25;;;;;;;-142.57;100.00;115900.28;5015115;28;20125;-87
2023/05/10 02:22:34;;;;;;;35.58;21.05;;;;;;;-142.57;100.00;115900.28;5015612;28;20041;-84
2023/05/10 02:25:01;;;;;;;36.13;21.90;;;;;;;-142.57;100.00;115900.28;5033748;28;20041;-86
2023/05/10 02:27:29;;;;;;;30.60;20.67;;;;;;;-142.57;100.00;115900.28;5033800;28;20037;-85
2023/05/10 02:29:57;;;;;;;35.28;21.17;;;;;;;-142.57;100.00;115900.28;5032742;28;20025;-86
2023/05/10 02:32:26;;;;;;;34.53;21.42;;;;;;;-142.57;100.00;115900.28;5032911;28;20071;-83
2023/05/10 02:34:54;;;;;;;30.95;21.05;;;;;;;-142.57;100.00;115900.28;5032973;28;20057;-83
2023/05/10 02:37:20;;;;;;;31.42;21.17;;;;;;;-142.57;100.00;115900.28;5032967;28;20082;-85
2023/05/10 02:39:52;;;;;;;31.92;19.13;;;;;;;-142.57;100.00;115900.28;5015045;28;20405;-85
2023/05/10 02:42:25;;;;;;;31.55;19.95;;;;;;;-142.57;100.00;115900.28;5014902;28;20117;-85
2023/05/10 02:44:54;;;;;;;27.75;19.27;;;;;;;-142.57;100.00;115900.28;5032998;28;20091;-85
2023/05/10 02:47:22;;;;;;;32.95;20.05;;;;;;;-142.57;100.00;115900.28;5033276;28;20041;-85
2023/05/10 02:49:48;;;;;;;29.30;19.77;;;;;;;-142.57;100.00;115900.28;5015829;28;20021;-84
2023/05/10 02:52:20;;;;;;;28.65;20.00;;;;;;;-142.57;100.00;115900.28;5021165;28;20057;-87
2023/05/10 02:54:50;;;;;;;31.05;19.55;;;;;;;-142.57;100.00;115900.28;5034069;28;20454;-86
2023/05/10 02:57:22;;;;;;;29.95;18.65;;;;;;;-142.57;100.00;115900.28;5016364;28;20034;-88
2023/05/10 02:59:47;;;;;;;31.08;19.30;;;;;;;-142.57;100.00;115900.28;5034147;28;20137;-86
2023/05/10 03:02:13;;;;;;;27.73;18.63;;;;;;;-142.57;100.00;115900.28;5015417;28;20124;-89
2023/05/10 03:04:39;;;;;;;26.83;17.60;;;;;;;-142.57;100.00;115900.28;5032828;28;20040;-87
2023/05/10 03:07:04;;;;;;;26.17;17.08;;;;;;;-142.57;100.00;115900.28;5014969;28;20128;-86
2023/05/10 03:09:32;;;;;;;26.17;16.55;;;;;;;-142.57;100.00;115900.28;5014805;28;20068;-86
2023/05/10 03:12:27;;;;;;;21.92;14.70;;;;;;;-142.57;100.00;115900.28;5015311;28;20025;-87
2023/05/10 03:15:05;;;;;;;19.02;13.70;;;;;;;-142.57;100.00;115900.28;5014655;28;20128;-87
2023/05/10 03:18:01;;;;;;;21.23;12.68;;;;;;;-142.57;100.00;115900.28;5016105;28;20122;-88
2023/05/10 03:20:53;;;;;;;17.50;12.18;;;;;;;-142.57;100.00;115900.28;5016360;28;20061;-87
2023/05/10 03:23:44;;;;;;;17.85;13.35;;;;;;;-142.57;100.00;115900.28;5012289;28;20489;-87
2023/05/10 03:26:12;;;;;;;18.50;12.02;;;;;;;-142.57;100.00;115900.28;5019033;28;20099;-87
2023/05/10 03:28:39;;;;;;;17.58;11.63;;;;;;;-142.57;100.00;115900.28;5036582;28;20514;-84
2023/05/10 03:31:06;;;;;;;19.25;11.77;;;;;;;-142.57;100.00;115900.28;5018936;28;20129;-86
2023/05/10 03:33:32;;;;;;;16.15;11.32;;;;;;;-142.57;100.00;115900.28;5035691;28;20466;-87
2023/05/10 03:35:58;;;;;;;16.35;10.85;;;;;;;-142.57;100.00;115900.28;5039015;28;20052;-88
2023/05/10 03:38:25;;;;;;;17.02;11.15;;;;;;;-142.57;100.00;115900.28;5039027;28;20164;-86
2023/05/10 03:40:50;;;;;;;16.58;10.70;;;;;;;-142.57;100.00;115900.28;5057665;28;20065;-86
2023/05/10 03:43:16;;;;;;;17.58;11.73;;;;;;;-142.57;100.00;115900.28;5040401;28;20101;-87
2023/05/10 03:45:41;;;;;;;18.88;11.30;;;;;;;-142.57;100.00;115900.28;5040778;28;20033;-84
2023/05/10 03:48:07;;;;;;;19.25;11.23;;;;;;;-142.57;100.00;115900.28;5058065;28;20120;-86
2023/05/10 03:50:33;;;;;;;15.45;11.43;;;;;;;-142.57;100.00;115900.28;5058377;28;20037;-88
2023/05/10 03:52:58;;;;;;;20.05;11.70;;;;;;;-142.57;100.00;115900.28;5056802;28;20033;-82
2023/05/10 03:55:24;;;;;;;17.13;11.52;;;;;;;-142.57;100.00;115900.28;5038755;28;20434;-85
2023/05/10 03:57:50;;;;;;;17.23;11.30;;;;;;;-142.57;100.00;115900.28;5038606;28;20059;-82
2023/05/10 04:00:18;;;;;;;16.58;11.48;;;;;;;-142.57;100.00;115900.28;5039187;28;20486;-83
2023/05/10 04:02:46;;;;;;;18.35;11.73;;;;;;;-142.57;100.00;115900.28;5039995;28;20482;-85
2023/05/10 04:05:16;;;;;;;15.90;11.18;;;;;;;-142.57;100.00;115900.28;5039497;28;20108;-85
2023/05/10 04:07:41;;;;;;;17.88;12.20;;;;;;;-142.57;100.00;115900.28;5040230;28;20037;-84
2023/05/10 04:10:07;;;;;;;17.25;11.38;;;;;;;-142.57;100.00;115900.28;5042120;28;20033;-86
2023/05/10 04:12:36;;;;;;;15.88;11.38;;;;;;;-142.57;100.00;115900.28;5061301;28;20033;-86
2023/05/10 04:15:01;;;;;;;14.77;11.25;;;;;;;-142.57;100.00;115900.28;5047031;28;20036;-85
2023/05/10 04:17:27;;;;;;;19.30;10.95;;;;;;;-142.57;100.00;115900.28;5059050;28;20025;-88
2023/05/10 04:19:54;;;;;;;19.45;10.98;;;;;;;-142.57;100.00;115900.28;5062675;28;20044;-86
2023/05/10 04:22:20;;;;;;;14.70;11.30;;;;;;;-142.57;100.00;115900.28;5062581;28;20036;-88
2023/05/10 04:24:46;;;;;;;17.52;11.13;;;;;;;-142.57;100.00;115900.28;5060884;28;20033;-85
2023/05/10 04:27:11;;;;;;;14.00;10.38;;;;;;;-142.57;100.00;115900.28;5059382;28;20037;-87
2023/05/10 04:29:38;;;;;;;17.95;11.23;;;;;;;-142.57;100.00;115900.28;5058838;28;20116;-88
2023/05/10 04:32:04;;;;;;;16.17;10.05;;;;;;;-142.57;100.00;115900.28;5044052;28;20535;-89
2023/05/10 04:34:29;;;;;;;19.10;10.40;;;;;;;-142.57;100.00;115900.28;5071445;28;20083;-82
2023/05/10 04:36:55;;;;;;;13.77;9.40;;;;;;;-142.57;100.00;115900.28;5072630;28;20120;-83
2023/05/10 04:39:21;;;;;;;13.57;9.63;;;;;;;-142.57;100.00;115900.28;5073750;28;20120;-81
2023/05/10 04:41:47;;;;;;;14.32;10.23;;;;;;;-142.57;100.00;115900.28;5057753;28;20466;-83
2023/05/10 04:44:13;;;;;;;15.23;10.30;;;;;;;-142.57;100.00;115900.28;5064117;28;20099;-85
2023/05/10 04:46:38;;;;;;;16.13;11.13;;;;;;;-142.57;100.00;115900.28;5047202;28;20037;-84
2023/05/10 04:49:04;;;;;;;16.05;10.77;;;;;;;-142.57;100.00;115900.28;5032540;28;20463;-85
2023/05/10 04:51:30;;;;;;;15.05;10.70;;;;;;;-142.57;100.00;115900.28;5062116;28;20111;-85
2023/05/10 04:53:55;;;;;;;14.55;11.50;;;;;;;-142.57;100.00;115900.28;5061087;28;20034;-84
2023/05/10 04:56:22;;;;;;;16.92;11.43;;;;;;;-142.57;100.00;115900.28;5025029;28;20042;-85
2023/05/10 04:58:47;;;;;;;16.27;11.55;;;;;;;-142.57;100.00;115900.28;5057362;28;20036;-83
2023/05/10 05:01:30;;;;;;;16.25;10.63;;;;;;;-142.57;100.00;115900.28;5040888;28;20038;-86
2023/05/10 05:03:59;;;;;;;14.73;10.77;;;;;;;-142.57;100.00;115900.28;5000973;28;20026;-84
2023/05/10 05:06:25;;;;;;;15.15;10.45;;;;;;;-142.57;100.00;115900.28;5015367;28;20060;-83
2023/05/10 05:08:52;;;;;;;16.63;11.48;;;;;;;-142.57;100.00;115900.28;5030211;28;20061;-84
2023/05/10 05:11:17;;;;;;;13.50;10.73;;;;;;;-142.57;100.00;115900.28;4989993;28;20115;-87
2023/05/10 05:13:43;;;;;;;15.43;11.20;;;;;;;-142.57;100.00;115900.28;5001708;28;20058;-87
2023/05/10 05:16:10;;;;;;;14.57;10.48;;;;;;;-142.57;100.00;115900.28;5015803;28;20061;-88
2023/05/10 05:18:36;;;;;;;14.13;10.65;;;;;;;-142.57;100.00;115900.28;5016573;28;20188;-84
2023/05/10 05:21:01;;;;;;;16.60;11.43;;;;;;;-142.57;100.00;115900.28;4998368;28;20499;-85
2023/05/10 05:23:27;;;;;;;17.73;12.82;;;;;;;-142.57;100.00;115900.28;5017805;28;20026;-91
2023/05/10 05:25:56;;;;;;;20.60;12.70;;;;;;;-142.57;100.00;115900.28;5033369;28;20048;-91
2023/05/10 05:28:21;;;;;;;19.40;11.95;;;;;;;-142.57;100.00;115900.28;5001094;28;20052;-90
2023/05/10 05:30:47;;;;;;;20.67;13.15;;;;;;;-142.57;100.00;115900.28;5017197;28;20029;-90
2023/05/10 05:33:16;;;;;;;16.55;12.40;;;;;;;-142.57;100.00;115900.28;5019989;28;20069;-89
2023/05/10 05:35:47;;;;;;;16.85;12.25;;;;;;;-142.57;100.00;115900.28;5025069;28;20037;-90
2023/05/10 05:38:12;;;;;;;18.02;11.73;;;;;;;-142.57;100.00;115900.28;5027673;28;20049;-89
2023/05/10 05:40:38;;;;;;;18.23;12.07;;;;;;;-142.57;100.00;115900.28;5007715;28;20042;-86
2023/05/10 05:43:04;;;;;;;14.93;11.20;;;;;;;-142.57;100.00;115900.28;5000800;28;20044;-87
2023/05/10 05:45:30;;;;;;;19.83;11.65;;;;;;;-142.57;100.00;115900.28;4984618;28;20475;-87
2023/05/10 05:47:58;;;;;;;14.75;10.20;;;;;;;-142.57;100.00;115900.28;5000141;28;20057;-87
2023/05/10 05:50:25;;;;;;;14.35;9.80;;;;;;;-142.57;100.00;115900.28;5000389;28;20034;-90
2023/05/10 05:52:51;;;;;;;15.55;9.90;;;;;;;-142.57;100.00;115900.28;4987251;28;20072;-90
2023/05/10 05:55:16;;;;;;;12.48;9.27;;;;;;;-142.57;100.00;115900.28;5000800;28;20042;-85
2023/05/10 05:57:45;;;;;;;16.55;10.02;;;;;;;-142.57;100.00;115900.28;5000288;28;20439;-88
2023/05/10 06:00:11;;;;;;;15.10;10.35;;;;;;;-142.57;100.00;115900.28;4997799;28;20037;-83
2023/05/10 06:02:39;;;;;;;13.88;10.05;;;;;;;-142.57;100.00;115900.28;5015542;28;20042;-84
2023/05/10 06:05:05;;;;;;;26.40;17.38;;;;;;;-142.57;100.00;115900.28;5017222;28;20036;-84
2023/05/10 06:07:36;;;;;;;15.20;10.30;;;;;;;-142.57;100.00;115900.28;5015297;28;20065;-86
2023/05/10 06:10:02;;;;;;;14.57;8.65;;;;;;;-142.57;100.00;115900.28;5014894;28;20144;-83
2023/05/10 06:12:28;;;;;;;14.48;10.38;;;;;;;-142.57;100.00;115900.28;5015948;28;20041;-82
2023/05/10 06:14:53;;;;;;;15.77;10.70;;;;;;;-142.57;100.00;115900.28;5015195;28;20026;-83
2023/05/10 06:17:19;;;;;;;17.65;10.55;;;;;;;-142.57;100.00;115900.28;5016931;28;20514;-84
2023/05/10 06:19:44;;;;;;;18.98;9.50;;;;;;;-142.57;100.00;115900.28;5017474;28;20042;-83
2023/05/10 06:22:10;;;;;;;13.23;8.38;;;;;;;-142.57;100.00;115900.28;5016201;28;20395;-82
2023/05/10 06:24:35;;;;;;;11.23;7.40;;;;;;;-142.57;100.00;115900.28;5003769;28;20065;-82
2023/05/10 06:27:01;;;;;;;9.75;7.28;;;;;;;-142.57;100.00;115900.28;5017414;28;20365;-81
2023/05/10 06:29:27;;;;;;;15.88;7.25;;;;;;;-142.57;100.00;115900.28;4998622;28;20038;-82
2023/05/10 06:31:58;;;;;;;46.78;8.57;;;;;;;-142.57;100.00;115900.28;5014489;28;20475;-84
2023/05/10 06:34:24;;;;;;;13.82;7.15;;;;;;;-142.57;100.00;115900.28;5014784;28;20034;-83
2023/05/10 06:36:50;;;;;;;15.55;7.30;;;;;;;-142.57;100.00;115900.28;5016006;28;20041;-85
2023/05/10 06:39:16;;;;;;;10.60;6.63;;;;;;;-142.57;100.00;115900.28;5015527;28;20056;-84
2023/05/10 06:41:41;;;;;;;8.13;6.38;;;;;;;-142.57;100.00;115900.28;5017193;28;20037;-85
2023/05/10 06:44:08;;;;;;;11.98;6.60;;;;;;;-142.57;100.00;115900.28;5016007;28;20371;-84
2023/05/10 06:46:39;;;;;;;9.02;6.68;;;;;;;-142.57;100.00;115900.28;5035283;28;20111;-85
2023/05/10 06:49:05;;;;;;;6.83;5.00;;;;;;;-142.57;100.00;115900.28;5056893;28;20157;-84
2023/05/10 06:51:32;;;;;;;9.60;6.47;;;;;;;-142.57;100.00;115900.28;5053498;28;20447;-83
2023/05/10 06:53:58;;;;;;;10.13;6.40;;;;;;;-142.57;100.00;115900.28;5026876;28;20049;-85
2023/05/10 06:56:23;;;;;;;9.23;6.20;;;;;;;-142.57;100.00;115900.28;5035188;28;20464;-83
2023/05/10 06:58:50;;;;;;;15.35;6.95;;;;;;;-142.57;100.00;115900.28;5031029;28;20038;-85
2023/05/10 07:01:19;;;;;;;13.90;7.13;;;;;;;-142.57;100.00;115900.28;5043444;28;20045;-84
2023/05/10 07:03:44;;;;;;;13.48;7.13;;;;;;;-142.57;100.00;115900.28;5034315;28;20044;-86
2023/05/10 07:06:10;;;;;;;11.23;7.00;;;;;;;-142.57;100.00;115900.28;5034450;28;20087;-84
2023/05/10 07:08:36;;;;;;;10.38;6.30;;;;;;;-142.57;100.00;115900.28;5037346;28;20438;-84
2023/05/10 07:11:03;;;;;;;10.95;6.10;;;;;;;-142.57;100.00;115900.28;5035514;28;20036;-84
2023/05/10 07:13:33;;;;;;;12.77;6.68;;;;;;;-142.57;100.00;115900.28;5034258;28;20041;-84
2023/05/10 07:16:00;;;;;;;9.27;6.00;;;;;;;-142.57;100.00;115900.28;5033779;28;20068;-88
2023/05/10 07:18:26;;;;;;;9.25;6.10;;;;;;;-142.57;100.00;115900.28;5028497;28;20184;-83
2023/05/10 07:20:52;;;;;;;10.23;6.30;;;;;;;-142.57;100.00;115900.28;5012841;28;20062;-82
2023/05/10 07:23:20;;;;;;;13.27;6.90;;;;;;;-142.57;100.00;115900.28;5016691;28;20013;-81
2023/05/10 07:25:54;;;;;;;12.35;6.68;;;;;;;-142.57;100.00;115900.28;5014894;28;20073;-86
2023/05/10 07:28:20;;;;;;;11.82;6.30;;;;;;;-142.57;100.00;115900.28;5019131;28;20033;-84
2023/05/10 07:30:48;;;;;;;9.68;6.68;;;;;;;-142.57;100.00;115900.28;5036346;28;20087;-86
2023/05/10 07:33:14;;;;;;;13.25;7.10;;;;;;;-142.57;100.00;115900.28;5035768;28;20037;-84
2023/05/10 07:35:40;;;;;;;10.90;5.97;;;;;;;-142.57;100.00;115900.28;5042636;28;20037;-81
2023/05/10 07:38:05;;;;;;;12.05;6.25;;;;;;;-142.57;100.00;115900.28;5048143;28;20387;-89
2023/05/10 07:40:35;;;;;;;9.60;6.15;;;;;;;-142.57;100.00;115900.28;5040170;28;20037;-83
2023/05/10 07:43:01;;;;;;;12.23;6.47;;;;;;;-142.57;100.00;115900.28;5036139;28;20037;-85
2023/05/10 07:45:30;;;;;;;12.52;6.63;;;;;;;-142.57;100.00;115900.28;5033387;28;20037;-85
2023/05/10 07:47:55;;;;;;;17.10;7.35;;;;;;;-142.57;100.00;115900.28;5017627;28;20061;-84
2023/05/10 07:50:21;;;;;;;9.27;6.28;;;;;;;-142.57;100.00;115900.28;5033769;28;20049;-83
2023/05/10 07:52:47;;;;;;;13.90;6.20;;;;;;;-142.57;100.00;115900.28;5037892;28;20043;-85
2023/05/10 07:55:14;;;;;;;9.43;6.07;;;;;;;-142.57;100.00;115900.28;5037458;28;20412;-87
2023/05/10 07:57:39;;;;;;;9.40;6.03;;;;;;;-142.57;100.00;115900.28;5038195;28;20060;-87
2023/05/10 08:00:12;;;;;;;8.32;5.70;;;;;;;-142.57;100.00;115900.28;5024681;28;20117;-87
2023/05/10 08:02:43;;;;;;;9.20;5.53;;;;;;;-142.57;100.00;115900.28;5022207;28;20437;-85
2023/05/10 08:05:11;;;;;;;8.90;5.22;;;;;;;-142.57;100.00;115900.28;5040302;28;20037;-85
2023/05/10 08:07:37;;;;;;;9.23;5.75;;;;;;;-142.57;100.00;115900.28;5041268;28;20040;-85
2023/05/10 08:10:03;;;;;;;12.07;6.35;;;;;;;-142.57;100.00;115900.28;5027509;28;20029;-86
2023/05/10 08:12:32;;;;;;;9.85;5.53;;;;;;;-142.57;100.00;115900.28;5014082;28;20069;-86
2023/05/10 08:15:01;;;;;;;12.07;6.55;;;;;;;-142.57;100.00;115900.28;5026830;28;20528;-85
2023/05/10 08:17:27;;;;;;;13.05;7.65;;;;;;;-142.57;100.00;115900.28;5044311;28;20096;-84
2023/05/10 08:19:52;;;;;;;8.05;5.78;;;;;;;-142.57;100.00;115900.28;5028462;28;20048;-84
2023/05/10 08:22:18;;;;;;;8.80;6.18;;;;;;;-142.57;100.00;115900.28;5038011;28;20025;-88
2023/05/10 08:24:45;;;;;;;9.05;6.03;;;;;;;-142.57;100.00;115900.28;5055879;28;20124;-87
2023/05/10 08:27:10;;;;;;;11.50;5.15;;;;;;;-142.57;100.00;115900.28;5059675;28;20033;-86
2023/05/10 08:29:37;;;;;;;7.63;5.35;;;;;;;-142.57;100.00;115900.28;5023498;28;20038;-85
2023/05/10 08:32:03;;;;;;;8.00;4.53;;;;;;;-142.57;100.00;115900.28;5059462;28;20033;-85
2023/05/10 08:34:34;;;;;;;7.85;4.93;;;;;;;-142.57;100.00;115900.28;5041659;28;20025;-86
2023/05/10 08:37:00;;;;;;;8.82;5.40;;;;;;;-142.57;100.00;115900.28;5059263;28;20064;-86
2023/05/10 08:39:25;;;;;;;10.63;6.20;;;;;;;-142.57;100.00;115900.28;5059490;28;20021;-87
2023/05/10 08:41:54;;;;;;;10.32;5.88;;;;;;;-142.57;100.00;115900.28;5059199;28;20085;-86
2023/05/10 08:44:20;;;;;;;9.25;6.30;;;;;;;-142.57;100.00;115900.28;5059346;28;20017;-85
2023/05/10 08:46:51;;;;;;;9.32;5.43;;;;;;;-142.57;100.00;115900.28;5058802;28;20064;-88
2023/05/10 08:49:18;;;;;;;7.97;5.00;;;;;;;-142.57;100.00;115900.28;5025721;28;20033;-87
2023/05/10 08:51:50;;;;;;;13.25;5.30;;;;;;;-142.57;100.00;115900.28;5025666;28;20029;-87
2023/05/10 08:54:19;;;;;;;7.75;5.15;;;;;;;-142.57;100.00;115900.28;5022731;28;20033;-85
2023/05/10 08:56:47;;;;;;;6.53;4.82;;;;;;;-142.57;100.00;115900.28;5020397;28;20398;-86
2023/05/10 08:59:14;;;;;;;8.48;4.10;;;;;;;-142.57;100.00;115900.28;5038067;28;20047;-85
2023/05/10 09:01:41;;;;;;;6.85;4.63;;;;;;;-142.57;100.00;115900.28;5037605;28;20021;-87
2023/05/10 09:04:06;;;;;;;9.93;5.05;;;;;;;-142.57;100.00;115900.28;5041716;28;20037;-91
2023/05/10 09:06:43;;;;;;;9.82;5.30;;;;;;;-142.57;100.00;115900.28;5039170;28;20026;-88
2023/05/10 09:09:09;;;;;;;8.48;5.38;;;;;;;-142.57;100.00;115900.28;5004806;28;20106;-88
2023/05/10 09:11:35;;;;;;;9.50;6.03;;;;;;;-142.57;100.00;115900.28;5038636;28;20610;-87
2023/05/10 09:14:01;;;;;;;9.98;5.05;;;;;;;-142.57;100.00;115900.28;5039019;28;20108;-85
2023/05/10 09:16:26;;;;;;;9.18;5.13;;;;;;;-142.57;100.00;115900.28;5022599;28;20088;-87
2023/05/10 09:18:52;;;;;;;9.23;5.53;;;;;;;-142.57;100.00;115900.28;5020281;28;20041;-85
2023/05/10 09:21:20;;;;;;;9.40;5.80;;;;;;;-142.57;100.00;115900.28;5037993;28;20052;-85
2023/05/10 09:23:46;;;;;;;10.88;6.50;;;;;;;-142.57;100.00;115900.28;5022008;28;20051;-86
2023/05/10 09:26:16;;;;;;;8.15;5.68;;;;;;;-142.57;100.00;115900.28;5021456;28;20056;-87
2023/05/10 09:29:02;;;;;;;9.95;5.70;;;;;;;-142.57;100.00;115900.28;5020639;28;20056;-87
2023/05/10 09:31:50;;;;;;;7.60;5.25;;;;;;;-142.57;100.00;115900.28;5039116;28;20044;-86
2023/05/10 09:34:28;;;;;;;9.85;5.63;;;;;;;-142.57;100.00;115900.28;5022553;28;20056;-87
2023/05/10 09:36:57;;;;;;;8.80;5.40;;;;;;;-142.57;100.00;115900.28;5041182;28;20037;-87
2023/05/10 09:39:36;;;;;;;10.85;5.15;;;;;;;-142.57;100.00;115900.28;5008283;28;20057;-86
2023/05/10 09:42:07;;;;;;;7.78;4.72;;;;;;;-142.57;100.00;115900.28;5022956;28;20029;-88
2023/05/10 09:44:34;;;;;;;9.32;4.65;;;;;;;-142.57;100.00;115900.28;5034077;28;20021;-88
2023/05/10 09:47:03;;;;;;;8.35;4.57;;;;;;;-142.57;100.00;115900.28;5043681;28;20386;-86
2023/05/10 09:49:29;;;;;;;6.00;4.28;;;;;;;-142.57;100.00;115900.28;5041720;28;20040;-85
2023/05/10 09:52:05;;;;;;;5.72;4.43;;;;;;;-142.57;100.00;115900.28;5036070;28;20038;-87
2023/05/10 09:54:31;;;;;;;7.43;5.55;;;;;;;-142.57;100.00;115900.28;5035652;28;20044;-86
2023/05/10 09:56:57;;;;;;;7.32;4.95;;;;;;;-142.57;100.00;115900.28;5025374;28;20038;-88
2023/05/10 09:59:26;;;;;;;5.32;3.95;;;;;;;-142.57;100.00;115900.28;5030019;28;20199;-86
2023/05/10 10:01:52;;;;;;;7.88;3.90;;;;;;;-142.57;100.00;115900.28;5014879;28;20053;-88
2023/05/10 10:04:20;;;;;;;7.00;4.20;;;;;;;-142.57;100.00;115900.28;5003215;28;20030;-85
2023/05/10 10:06:45;;;;;;;6.47;4.30;;;;;;;-142.57;100.00;115900.28;5025363;28;20040;-87
2023/05/10 10:09:13;;;;;;;6.68;4.18;;;;;;;-142.57;100.00;115900.28;5010608;28;20478;-88
2023/05/10 10:11:39;;;;;;;8.38;4.15;;;;;;;-142.57;100.00;115900.28;5026390;28;20031;-89
2023/05/10 10:14:05;;;;;;;5.22;3.92;;;;;;;-142.57;100.00;115900.28;5052010;28;20041;-87
2023/05/10 10:16:31;;;;;;;7.47;4.60;;;;;;;-142.57;100.00;115900.28;5022120;28;20029;-87
2023/05/10 10:18:58;;;;;;;6.32;4.47;;;;;;;-142.57;100.00;115900.28;5018855;28;20036;-89
2023/05/10 10:21:24;;;;;;;6.40;4.30;;;;;;;-142.57;100.00;115900.28;5002970;28;20065;-86
2023/05/10 10:23:51;;;;;;;9.02;5.25;;;;;;;-142.57;100.00;115900.28;5023472;28;20022;-87
2023/05/10 10:26:20;;;;;;;9.25;5.68;;;;;;;-142.57;100.00;115900.28;5002546;28;20444;-86
2023/05/10 10:29:20;;;;;;;6.97;4.53;;;;;;;-142.57;100.00;115900.28;5005815;28;20105;-86
2023/05/10 10:32:01;;;;;;;9.38;5.25;;;;;;;-142.57;100.00;115900.28;5029851;28;20046;-91
2023/05/10 10:34:29;;;;;;;8.90;5.40;;;;;;;-142.57;100.00;115900.28;5007902;28;20068;-90
2023/05/10 10:36:57;;;;;;;7.25;4.55;;;;;;;-142.57;100.00;115900.28;5049589;28;20049;-91
2023/05/10 10:39:27;;;;;;;9.68;5.18;;;;;;;-142.57;100.00;115900.28;5028216;28;20068;-90
2023/05/10 10:41:58;;;;;;;10.07;5.18;;;;;;;-142.57;100.00;115900.28;5030067;28;20068;-88
2023/05/10 10:44:35;;;;;;;8.02;5.38;;;;;;;-142.57;100.00;115900.28;5049222;28;20126;-89
2023/05/10 10:47:18;;;;;;;7.03;5.10;;;;;;;-142.57;100.00;115900.28;5049406;28;20037;-88
2023/05/10 10:49:56;;;;;;;8.13;5.50;;;;;;;-142.57;100.00;115900.28;5043831;22;20054;-89
2023/05/10 10:52:44;;;;;;;8.70;6.05;;;;;;;-142.57;100.00;115900.28;5029601;28;20180;-87
2023/05/10 10:55:30;;;;;;;8.55;5.25;;;;;;;-142.57;100.00;115900.28;5019554;28;20072;-84
2023/05/10 10:58:02;;;;;;;7.68;5.47;;;;;;;-142.57;100.00;115900.28;5036755;28;20040;-88
2023/05/10 11:00:46;;;;;;;8.93;6.18;;;;;;;-142.57;100.00;115900.28;5003748;28;20053;-88
2023/05/10 11:03:17;;;;;;;10.70;6.15;;;;;;;-142.57;100.00;115900.28;5037326;28;20054;-86
2023/05/10 11:06:07;;;;;;;7.35;5.60;;;;;;;-142.57;100.00;115900.28;5037241;28;20038;-86
2023/05/10 11:08:42;;;;;;;7.90;4.75;;;;;;;-142.57;100.00;115900.28;5017825;28;20050;-88
2023/05/10 11:11:14;;;;;;;10.23;5.13;;;;;;;-142.57;100.00;115900.28;5037023;28;20029;-90
2023/05/10 11:13:50;;;;;;;8.52;4.53;;;;;;;-142.57;100.00;115900.28;5088408;22;20120;-88